Time;durP1;ratioP1;P1;durP2;ratioP2;P2;SDS_P1;SDS_P2;PMS_P1;PMS_P2;Temp;Humidity;BMP_temperature;BMP_pressure;BME280_temperature;BME280_humidity;BME280_pressure;Samples;Min_cycle;Max_cycle;Signal;HPM_P1;HPM_P2
2023/06/04 00:01:07;;;;;;;15.90;5.68;;;;;;;21.46;49.38;101000.44;4995977;28;20050;-44
2023/06/04 00:03:34;;;;;;;17.38;5.13;;;;;;;21.58;49.79;101007.22;4995757;28;20022;-44
2023/06/04 00:06:01;;;;;;;20.25;5.78;;;;;;;21.50;51.03;101001.53;4995998;28;20467;-44
2023/06/04 00:08:27;;;;;;;16.20;5.63;;;;;;;21.29;51.72;101004.28;4995827;28;20027;-45
2023/06/04 00:10:53;;;;;;;17.65;6.15;;;;;;;21.16;52.66;100999.38;4996190;28;20113;-44
2023/06/04 00:13:19;;;;;;;18.10;6.55;;;;;;;20.61;52.70;100998.22;4995621;28;20448;-47
2023/06/04 00:15:46;;;;;;;19.30;5.85;;;;;;;20.93;53.55;101003.44;4995672;28;20060;-46
2023/06/04 00:18:13;;;;;;;23.40;7.05;;;;;;;20.76;53.30;101005.56;4995881;28;20022;-46
2023/06/04 00:20:40;;;;;;;17.65;6.65;;;;;;;20.54;54.02;101003.09;4995072;28;20489;-45
2023/06/04 00:23:06;;;;;;;21.98;6.30;;;;;;;20.40;54.82;101004.66;4995756;28;20042;-45
2023/06/04 00:25:32;;;;;;;25.55;7.38;;;;;;;20.61;54.87;101000.94;5009906;28;20026;-47
2023/06/04 00:27:58;;;;;;;23.10;6.38;;;;;;;20.45;55.20;100997.34;4995731;28;20034;-45
2023/06/04 00:30:25;;;;;;;21.65;6.75;;;;;;;20.34;56.16;101000.28;4995389;28;20054;-46
2023/06/04 00:32:51;;;;;;;23.75;6.60;;;;;;;20.36;55.91;100996.22;4995575;28;20034;-44
2023/06/04 00:35:18;;;;;;;23.23;6.85;;;;;;;20.12;56.11;101001.31;4995781;28;20467;-44
2023/06/04 00:37:44;;;;;;;20.05;5.97;;;;;;;19.98;56.62;101003.66;4995235;28;20506;-45
2023/06/04 00:40:10;;;;;;;21.50;6.28;;;;;;;19.71;57.73;101002.97;4995594;28;20061;-45
2023/06/04 00:42:37;;;;;;;25.77;6.65;;;;;;;19.73;58.16;101001.66;4995176;28;20084;-46
2023/06/04 00:45:07;;;;;;;30.83;7.18;;;;;;;19.66;57.64;100992.13;4995159;28;20109;-45
2023/06/04 00:47:33;;;;;;;20.77;6.07;;;;;;;19.76;57.18;100990.25;4995222;28;20089;-45
2023/06/04 00:50:00;;;;;;;27.25;8.07;;;;;;;19.31;57.59;100987.22;4995084;28;20022;-45
2023/06/04 00:52:26;;;;;;;27.17;6.75;;;;;;;19.51;57.12;100987.38;4995195;28;20026;-45
2023/06/04 00:54:54;;;;;;;25.52;7.25;;;;;;;19.21;57.36;100979.81;4994993;28;20023;-45
2023/06/04 00:57:23;;;;;;;22.95;7.30;;;;;;;19.21;57.95;100968.97;4994848;28;20030;-45
2023/06/04 00:59:50;;;;;;;29.75;6.65;;;;;;;18.97;58.27;100971.22;4994837;28;20072;-44
2023/06/04 01:02:25;;;;;;;23.15;6.75;;;;;;;18.61;58.77;100957.31;4994874;28;20049;-44
2023/06/04 01:05:00;;;;;;;30.58;6.95;;;;;;;18.93;59.01;100951.94;5009671;28;20022;-45
2023/06/04 01:07:28;;;;;;;25.42;7.20;;;;;;;18.67;59.23;100955.47;4994906;28;20035;-45
2023/06/04 01:09:55;;;;;;;25.13;6.65;;;;;;;18.76;58.62;100953.13;4994930;28;20029;-45
2023/06/04 01:12:22;;;;;;;22.45;7.22;;;;;;;18.95;58.23;100952.50;4994548;28;20033;-45
2023/06/04 01:14:48;;;;;;;23.20;6.30;;;;;;;19.02;57.78;100952.28;4994872;28;20030;-44
2023/06/04 01:17:20;;;;;;;27.92;6.60;;;;;;;18.83;58.13;100945.63;4994551;28;20015;-45
2023/06/04 01:20:02;;;;;;;20.00;6.43;;;;;;;19.02;58.94;100946.84;4994624;28;20026;-45
2023/06/04 01:22:59;;;;;;;21.02;6.53;;;;;;;18.91;58.42;100945.13;4994655;28;20065;-45
2023/06/04 01:25:39;;;;;;;22.75;6.20;;;;;;;18.79;57.88;100953.44;4994356;28;20034;-44
2023/06/04 01:28:07;;;;;;;23.77;7.15;;;;;;;18.67;58.99;100953.63;4994259;28;20030;-44
2023/06/04 01:30:43;;;;;;;25.05;7.13;;;;;;;18.63;58.92;100949.75;4994385;28;20030;-45
2023/06/04 01:33:16;;;;;;;26.23;6.35;;;;;;;18.78;58.48;100956.41;4993554;28;20053;-46
2023/06/04 01:35:42;;;;;;;17.45;6.10;;;;;;;18.75;58.86;100949.59;4994368;28;20061;-49
2023/06/04 01:38:09;;;;;;;20.30;6.20;;;;;;;18.70;58.80;100941.41;4993980;28;20050;-47
2023/06/04 01:40:35;;;;;;;21.52;6.75;;;;;;;18.76;58.86;100948.53;4994542;28;20438;-45
2023/06/04 01:43:02;;;;;;;22.50;6.88;;;;;;;18.72;58.76;100942.00;4994331;28;20395;-46
2023/06/04 01:45:28;;;;;;;21.10;6.22;;;;;;;18.78;58.66;100949.09;4993857;28;20030;-45
2023/06/04 01:47:55;;;;;;;26.55;6.25;;;;;;;18.69;58.43;100954.16;4993848;28;20101;-45
2023/06/04 01:50:21;;;;;;;17.05;6.28;;;;;;;18.64;58.98;100956.78;4994037;28;20474;-46
2023/06/04 01:52:48;;;;;;;23.42;6.25;;;;;;;18.72;58.38;100956.38;4993827;28;20038;-43
2023/06/04 01:55:17;;;;;;;20.35;6.75;;;;;;;18.32;59.93;100958.63;4993603;28;20387;-42
2023/06/04 01:57:44;;;;;;;28.50;7.03;;;;;;;18.59;59.27;100955.94;4993975;28;20037;-46
2023/06/04 02:00:11;;;;;;;26.08;7.30;;;;;;;18.71;59.12;100956.59;4993798;28;20414;-45
2023/06/04 02:02:40;;;;;;;24.80;6.97;;;;;;;18.66;59.19;100959.28;4993755;28;20110;-44
2023/06/04 02:05:07;;;;;;;25.27;7.47;;;;;;;18.64;59.18;100964.09;4993627;28;20032;-47
2023/06/04 02:07:41;;;;;;;21.60;6.55;;;;;;;18.56;59.84;100961.88;4993440;28;20113;-44
2023/06/04 02:10:12;;;;;;;31.65;6.97;;;;;;;18.93;58.90;100970.09;4993442;28;20403;-44
2023/06/04 02:12:40;;;;;;;27.70;6.68;;;;;;;19.06;58.14;100975.09;4993653;28;20031;-45
2023/06/04 02:15:09;;;;;;;21.77;7.00;;;;;;;19.06;58.68;100972.38;4993643;28;20539;-44
2023/06/04 02:17:39;;;;;;;26.35;7.03;;;;;;;19.06;58.70;100968.88;4993815;28;20364;-44
2023/06/04 02:20:09;;;;;;;19.77;7.07;;;;;;;19.58;57.17;100968.13;4993471;28;20109;-55
2023/06/04 02:22:35;;;;;;;24.40;6.97;;;;;;;19.25;57.21;100972.78;4993707;28;20467;-46
2023/06/04 02:25:02;;;;;;;27.05;7.20;;;;;;;18.79;58.48;100975.13;4993370;28;20386;-46
2023/06/04 02:27:28;;;;;;;26.35;7.38;;;;;;;19.24;57.84;100977.41;4993501;28;20092;-46
2023/06/04 02:29:54;;;;;;;23.25;6.70;;;;;;;19.22;57.68;100965.19;4993448;28;20025;-45
2023/06/04 02:32:21;;;;;;;29.27;8.07;;;;;;;18.98;57.74;100973.66;4993428;28;20026;-45
2023/06/04 02:34:48;;;;;;;19.48;6.55;;;;;;;18.94;57.95;100967.16;4993356;28;20050;-46
2023/06/04 02:37:15;;;;;;;28.60;6.97;;;;;;;18.51;59.54;100972.66;4993221;28;20056;-47
2023/06/04 02:39:41;;;;;;;29.27;7.65;;;;;;;18.20;60.62;100970.41;4993324;28;20026;-46
2023/06/04 02:42:07;;;;;;;26.33;7.43;;;;;;;18.18;60.46;100969.88;4993570;28;20042;-45
2023/06/04 02:44:34;;;;;;;32.25;8.20;;;;;;;17.49;62.63;100976.75;4996613;28;20035;-46
2023/06/04 02:47:00;;;;;;;26.27;7.63;;;;;;;17.58;62.32;100975.28;4997371;28;20114;-45
2023/06/04 02:49:26;;;;;;;25.20;7.78;;;;;;;17.37;63.71;100979.56;4997579;28;20053;-45
2023/06/04 02:51:52;;;;;;;28.08;8.60;;;;;;;16.86;64.93;100973.34;4997441;28;20542;-48
2023/06/04 02:54:19;;;;;;;27.45;7.40;;;;;;;16.66;65.98;100978.34;4997331;28;20027;-44
2023/06/04 02:56:45;;;;;;;33.20;8.27;;;;;;;16.30;67.62;100975.81;4997116;28;20064;-45
2023/06/04 02:59:13;;;;;;;36.92;8.98;;;;;;;16.10;68.61;100981.66;4997422;28;20057;-46
2023/06/04 03:01:40;;;;;;;26.48;8.00;;;;;;;15.66;70.53;100991.22;4996861;28;20102;-46
2023/06/04 03:04:09;;;;;;;32.40;8.32;;;;;;;15.47;70.89;100985.09;4996966;28;20030;-44
2023/06/04 03:06:40;;;;;;;31.83;8.85;;;;;;;15.23;71.98;100983.44;4996658;28;20030;-45
2023/06/04 03:09:07;;;;;;;25.77;7.97;;;;;;;15.10;72.87;100975.56;4997375;28;20030;-48
2023/06/04 03:11:33;;;;;;;32.25;9.13;;;;;;;14.82;74.05;100990.50;4997061;28;20018;-49
2023/06/04 03:13:59;;;;;;;27.90;8.68;;;;;;;14.59;75.38;100988.56;4996763;28;20041;-45
2023/06/04 03:16:25;;;;;;;30.08;9.73;;;;;;;14.61;75.31;100993.75;4996879;28;20057;-47
2023/06/04 03:18:52;;;;;;;28.55;8.88;;;;;;;14.60;75.28;100990.19;4996716;28;20038;-46
2023/06/04 03:21:18;;;;;;;36.35;9.35;;;;;;;14.50;75.89;100987.25;4996735;28;20029;-46
2023/06/04 03:23:44;;;;;;;36.40;10.43;;;;;;;14.27;77.13;100993.31;4996715;28;20033;-44
2023/06/04 03:26:13;;;;;;;32.65;10.00;;;;;;;14.26;77.30;100995.16;4996561;28;20030;-46
2023/06/04 03:28:40;;;;;;;31.15;9.90;;;;;;;14.23;77.13;100987.56;4996447;28;20045;-48
2023/06/04 03:31:06;;;;;;;35.97;9.38;;;;;;;14.28;77.19;100986.88;4996450;28;20030;-48
2023/06/04 03:33:32;;;;;;;32.58;9.73;;;;;;;14.30;76.80;100987.47;4996494;28;20402;-50
2023/06/04 03:35:59;;;;;;;36.60;10.70;;;;;;;14.14;77.13;100988.09;4996607;28;20097;-49
2023/06/04 03:38:26;;;;;;;28.38;9.70;;;;;;;14.14;77.34;100983.53;4996490;28;20054;-46
2023/06/04 03:40:55;;;;;;;29.00;9.88;;;;;;;14.14;77.26;100977.31;4996794;28;20486;-46
2023/06/04 03:43:22;;;;;;;38.40;11.02;;;;;;;13.82;78.52;100979.34;4996465;28;20026;-47
2023/06/04 03:45:48;;;;;;;33.92;9.70;;;;;;;14.04;77.67;100980.53;4996207;28;20117;-44
2023/06/04 03:48:14;;;;;;;32.17;9.15;;;;;;;13.95;77.99;100980.03;4996500;28;20498;-44
2023/06/04 03:50:41;;;;;;;35.92;11.45;;;;;;;13.79;78.27;100980.63;4996163;28;20105;-47
2023/06/04 03:53:07;;;;;;;35.45;9.57;;;;;;;13.82;78.16;100985.56;4996139;28;20117;-44
2023/06/04 03:55:33;;;;;;;37.30;10.05;;;;;;;13.80;78.38;100984.97;4995319;28;20093;-44
2023/06/04 03:57:59;;;;;;;32.47;10.07;;;;;;;13.83;77.94;100989.09;4996257;28;20018;-45
2023/06/04 04:00:27;;;;;;;31.35;10.45;;;;;;;13.78;78.05;100984.38;4996083;28;20030;-46
2023/06/04 04:02:53;;;;;;;34.47;10.00;;;;;;;13.63;78.41;100986.59;4995868;28;20018;-49
2023/06/04 04:05:19;;;;;;;33.70;9.35;;;;;;;13.63;78.08;100986.59;4995979;28;20104;-47
2023/06/04 04:07:47;;;;;;;31.63;9.45;;;;;;;13.76;77.69;100986.44;4996457;28;20030;-47
2023/06/04 04:10:13;;;;;;;29.23;9.57;;;;;;;13.80;77.33;100995.72;4996549;28;20097;-50
2023/06/04 04:12:39;;;;;;;32.00;9.93;;;;;;;13.64;77.60;100989.06;4996174;28;20392;-46
2023/06/04 04:15:09;;;;;;;36.70;9.90;;;;;;;13.78;77.26;100994.31;4996142;28;20104;-50
2023/06/04 04:17:35;;;;;;;38.95;10.10;;;;;;;13.74;77.39;100991.25;4995763;28;20050;-46
2023/06/04 04:20:04;;;;;;;29.45;9.43;;;;;;;13.63;77.97;100992.78;4995807;28;20073;-47
2023/06/04 04:22:31;;;;;;;30.13;9.73;;;;;;;13.65;78.15;101000.63;4995711;28;20353;-45
2023/06/04 04:24:57;;;;;;;34.65;9.90;;;;;;;13.65;77.75;100997.94;4995284;28;20105;-44
2023/06/04 04:27:24;;;;;;;29.98;9.68;;;;;;;13.59;77.94;101001.53;4995808;28;20426;-46
2023/06/04 04:29:50;;;;;;;28.08;9.48;;;;;;;13.57;78.11;100993.69;4996031;28;20026;-45
2023/06/04 04:32:16;;;;;;;34.30;9.57;;;;;;;13.61;77.89;100999.44;4995831;28;20033;-46
2023/06/04 04:34:54;;;;;;;35.85;10.35;;;;;;;13.55;78.06;101001.16;4995804;28;20498;-46
2023/06/04 04:37:21;;;;;;;31.77;9.02;;;;;;;13.40;78.98;100996.13;4995316;28;20395;-44
2023/06/04 04:39:51;;;;;;;34.75;9.55;;;;;;;13.36;79.18;100997.59;4995369;28;20085;-44
2023/06/04 04:42:18;;;;;;;29.60;9.38;;;;;;;13.41;79.22;100999.63;4995448;28;20058;-44
2023/06/04 04:44:47;;;;;;;34.53;9.07;;;;;;;13.43;79.16;100987.59;4995137;28;20495;-46
2023/06/04 04:47:16;;;;;;;30.98;10.68;;;;;;;13.47;78.69;100991.50;4995720;28;20030;-46
2023/06/04 04:49:43;;;;;;;41.13;10.02;;;;;;;13.37;79.25;100990.34;4995205;28;20022;-45
2023/06/04 04:52:09;;;;;;;31.75;10.00;;;;;;;13.36;79.39;100984.16;4995093;28;20030;-48
2023/06/04 04:54:35;;;;;;;40.70;10.05;;;;;;;13.19;80.13;100993.78;4995165;28;20026;-45
2023/06/04 04:57:02;;;;;;;34.10;10.48;;;;;;;13.29;80.08;101002.22;4995071;28;20101;-47
2023/06/04 04:59:28;;;;;;;39.85;10.05;;;;;;;13.33;80.00;100992.69;4995028;28;20475;-46
2023/06/04 05:01:54;;;;;;;30.15;9.85;;;;;;;13.30;80.29;100990.41;4995026;28;20356;-46
2023/06/04 05:04:20;;;;;;;36.45;10.20;;;;;;;13.42;79.61;100991.34;4995005;28;20455;-46
2023/06/04 05:06:47;;;;;;;33.20;10.57;;;;;;;13.34;79.78;100980.88;4994666;28;20038;-44
2023/06/04 05:09:13;;;;;;;30.85;10.18;;;;;;;13.43;79.40;100986.78;4994816;28;20026;-44
2023/06/04 05:11:39;;;;;;;30.45;10.07;;;;;;;13.24;80.37;100967.09;4994671;28;20026;-46
2023/06/04 05:14:06;;;;;;;33.50;10.15;;;;;;;13.32;79.95;100977.56;4994649;28;20027;-46
2023/06/04 05:16:35;;;;;;;33.65;9.93;;;;;;;13.34;79.96;100972.81;4994707;28;20041;-44
2023/06/04 05:19:02;;;;;;;33.20;9.80;;;;;;;13.46;79.32;100976.41;4994561;28;20494;-48
2023/06/04 05:21:28;;;;;;;34.88;10.43;;;;;;;13.48;79.20;100973.50;4994548;28;20047;-45
2023/06/04 05:23:56;;;;;;;34.78;10.55;;;;;;;13.52;79.01;100980.06;4994500;28;20027;-45
2023/06/04 05:26:25;;;;;;;31.13;10.48;;;;;;;13.30;79.77;100987.72;4994504;28;20493;-48
2023/06/04 05:28:51;;;;;;;37.92;10.40;;;;;;;13.30;79.89;100970.78;4994497;28;20053;-45
2023/06/04 05:31:18;;;;;;;33.25;10.80;;;;;;;13.32;79.60;100977.56;4994771;28;20085;-46
2023/06/04 05:33:44;;;;;;;39.00;11.40;;;;;;;13.29;79.60;100985.25;4994367;28;20037;-45
2023/06/04 05:36:10;;;;;;;24.13;9.57;;;;;;;13.30;79.64;100976.97;4994536;28;20061;-45
2023/06/04 05:38:37;;;;;;;41.70;11.73;;;;;;;13.34;79.63;100988.94;4994734;28;20034;-45
2023/06/04 05:41:03;;;;;;;35.10;11.15;;;;;;;13.23;79.96;101000.41;4994232;28;20046;-46
2023/06/04 05:43:30;;;;;;;31.77;10.02;;;;;;;13.24;80.14;100982.41;4994576;28;20026;-47
2023/06/04 05:45:56;;;;;;;37.72;10.57;;;;;;;13.20;80.39;100984.69;4994175;28;20030;-47
2023/06/04 05:48:22;;;;;;;40.72;11.07;;;;;;;13.11;80.88;100980.63;4994222;28;20465;-45
2023/06/04 05:50:48;;;;;;;33.17;10.25;;;;;;;13.17;81.19;100974.38;4994464;28;20029;-47
2023/06/04 05:53:15;;;;;;;30.42;10.52;;;;;;;13.17;80.38;100977.06;4993838;28;20026;-45
2023/06/04 05:55:41;;;;;;;36.63;9.85;;;;;;;13.18;80.39;100979.53;4994392;28;20018;-44
2023/06/04 05:58:07;;;;;;;36.13;10.48;;;;;;;13.17;80.12;100977.06;4993834;28;20018;-45
2023/06/04 06:00:33;;;;;;;43.55;11.00;;;;;;;13.18;79.93;100978.72;4993928;28;20022;-48
2023/06/04 06:03:01;;;;;;;39.08;10.63;;;;;;;13.18;79.93;100978.72;4993767;28;20027;-47
2023/06/04 06:05:27;;;;;;;38.35;11.13;;;;;;;13.05;80.54;100979.66;4993711;28;20026;-44
2023/06/04 06:07:55;;;;;;;33.10;10.38;;;;;;;13.00;80.97;100976.78;4993571;28;20031;-46
2023/06/04 06:10:22;;;;;;;34.25;10.38;;;;;;;13.00;81.06;100974.09;4993542;28;20026;-44
2023/06/04 06:12:48;;;;;;;39.38;11.38;;;;;;;13.02;80.94;100976.56;4993838;28;20027;-45
2023/06/04 06:15:15;;;;;;;41.13;11.02;;;;;;;13.02;80.92;100972.00;4993530;28;20376;-45
2023/06/04 06:17:41;;;;;;;40.17;11.18;;;;;;;12.99;81.30;100974.31;4993097;28;20073;-45
2023/06/04 06:20:08;;;;;;;34.95;11.13;;;;;;;12.97;81.46;100979.09;4993611;28;20386;-49
2023/06/04 06:22:35;;;;;;;47.00;12.18;;;;;;;13.02;81.10;100974.69;4993683;28;20483;-45
2023/06/04 06:25:03;;;;;;;44.60;11.90;;;;;;;12.99;81.01;100974.31;4993576;28;20382;-46
2023/06/04 06:27:29;;;;;;;46.55;11.55;;;;;;;13.05;80.87;100981.50;4993843;28;20570;-45
2023/06/04 06:29:55;;;;;;;43.33;10.68;;;;;;;13.09;80.74;100974.63;4994005;28;20118;-45
2023/06/04 06:32:21;;;;;;;34.13;11.10;;;;;;;13.05;80.86;100979.66;4993464;28;20030;-45
2023/06/04 06:34:48;;;;;;;38.95;11.23;;;;;;;13.03;81.24;100979.03;4993905;28;20023;-45
2023/06/04 06:37:14;;;;;;;35.55;10.48;;;;;;;13.00;81.29;100973.28;4993274;28;20111;-45
2023/06/04 06:39:40;;;;;;;32.95;10.45;;;;;;;12.94;81.45;100973.13;4993907;28;20080;-45
2023/06/04 06:42:06;;;;;;;34.15;10.55;;;;;;;12.97;81.71;100965.66;4993642;28;20027;-45
2023/06/04 06:44:33;;;;;;;35.70;11.10;;;;;;;13.00;81.63;100962.53;4993744;28;20023;-45
2023/06/04 06:46:59;;;;;;;43.00;11.65;;;;;;;13.14;81.10;100966.75;4993416;28;20392;-46
2023/06/04 06:49:25;;;;;;;30.42;9.98;;;;;;;12.95;81.76;100968.56;4993295;28;20026;-45
2023/06/04 06:51:51;;;;;;;33.50;11.02;;;;;;;12.97;81.89;100971.03;4993197;28;20110;-44
2023/06/04 06:54:21;;;;;;;36.83;11.73;;;;;;;13.05;81.39;100981.50;4993184;28;20027;-47
2023/06/04 06:56:49;;;;;;;37.35;11.23;;;;;;;12.92;81.75;100975.19;4993381;28;20031;-45
2023/06/04 06:59:15;;;;;;;41.03;11.50;;;;;;;12.95;81.71;100980.13;4993295;28;20475;-46
2023/06/04 07:01:42;;;;;;;34.15;12.45;;;;;;;12.96;81.60;100980.94;5008933;28;20526;-44
2023/06/04 07:04:08;;;;;;;36.80;11.20;;;;;;;12.85;82.23;100979.78;4993506;28;20066;-47
2023/06/04 07:06:36;;;;;;;46.65;12.32;;;;;;;12.79;82.66;100975.28;4993089;28;20030;-45
2023/06/04 07:09:03;;;;;;;34.83;12.30;;;;;;;12.88;82.48;100974.00;4993251;28;20112;-45
2023/06/04 07:11:30;;;;;;;55.83;15.02;;;;;;;12.95;82.13;100971.25;4992978;28;20078;-45
2023/06/04 07:13:56;;;;;;;43.92;13.00;;;;;;;12.95;82.25;100971.25;4992972;28;20030;-45
2023/06/04 07:16:22;;;;;;;35.63;11.70;;;;;;;12.94;82.50;100967.75;4993133;28;20028;-45
2023/06/04 07:18:51;;;;;;;37.58;11.75;;;;;;;12.90;82.76;100973.75;4993166;28;20061;-46
2023/06/04 07:21:20;;;;;;;39.40;12.70;;;;;;;12.97;82.58;100965.66;4993545;28;20022;-46
2023/06/04 07:23:49;;;;;;;38.38;12.52;;;;;;;13.08;82.18;100973.81;4992868;28;20490;-45
2023/06/04 07:26:16;;;;;;;42.58;12.75;;;;;;;12.92;82.99;100975.19;4992827;28;20038;-46
2023/06/04 07:28:42;;;;;;;36.10;11.32;;;;;;;13.09;82.23;100969.25;4993237;28;20053;-45
2023/06/04 07:31:09;;;;;;;43.15;12.13;;;;;;;12.99;82.66;100960.88;4995570;28;20034;-45
2023/06/04 07:33:42;;;;;;;37.97;12.00;;;;;;;13.12;81.82;100968.84;4996543;28;20049;-53
2023/06/04 07:36:13;;;;;;;40.83;12.25;;;;;;;13.16;81.83;100957.44;4996384;28;20061;-46
2023/06/04 07:38:40;;;;;;;35.40;12.75;;;;;;;13.14;81.85;100956.81;4996836;28;20496;-45
2023/06/04 07:41:06;;;;;;;44.13;12.02;;;;;;;13.04;82.17;100961.03;4996491;28;20023;-45
2023/06/04 07:43:37;;;;;;;34.45;11.40;;;;;;;12.98;82.66;100951.16;4996350;28;20033;-45
2023/06/04 07:46:04;;;;;;;38.72;12.30;;;;;;;13.05;82.20;100954.66;4996641;28;20023;-45
2023/06/04 07:48:30;;;;;;;45.50;12.00;;;;;;;12.98;82.85;100953.84;4996296;28;20026;-46
2023/06/04 07:51:01;;;;;;;41.28;12.45;;;;;;;12.95;82.84;100947.06;4996262;28;20482;-45
2023/06/04 07:53:27;;;;;;;35.72;11.88;;;;;;;12.95;83.04;100955.13;4996488;28;20049;-45
2023/06/04 07:55:54;;;;;;;47.22;13.25;;;;;;;12.83;83.79;100955.00;4996219;28;20027;-45
2023/06/04 07:58:21;;;;;;;43.25;13.15;;;;;;;12.85;83.95;100963.66;5011166;28;20474;-45
2023/06/04 08:00:47;;;;;;;51.08;13.73;;;;;;;12.86;83.91;100959.94;4996368;28;20030;-45
2023/06/04 08:03:15;;;;;;;43.33;13.68;;;;;;;12.85;83.84;100960.16;4996067;28;20081;-45
2023/06/04 08:05:41;;;;;;;40.90;12.15;;;;;;;12.86;83.69;100962.63;4996026;28;20073;-44
2023/06/04 08:08:08;;;;;;;49.67;13.52;;;;;;;12.77;84.47;100963.09;4995965;28;20364;-44
2023/06/04 08:10:34;;;;;;;42.92;13.63;;;;;;;12.77;84.52;100969.31;4995868;28;20027;-45
2023/06/04 08:13:01;;;;;;;50.38;14.45;;;;;;;12.81;84.15;100967.81;4995703;28;20034;-46
2023/06/04 08:15:27;;;;;;;41.42;13.45;;;;;;;12.73;84.54;100975.34;4995869;28;20027;-45
2023/06/04 08:17:53;;;;;;;54.50;13.80;;;;;;;12.65;84.82;100969.16;4995624;28;20034;-45
2023/06/04 08:20:19;;;;;;;55.00;14.18;;;;;;;12.80;83.93;100971.56;4995936;28;20033;-45
2023/06/04 08:22:46;;;;;;;40.70;13.55;;;;;;;12.80;83.66;100978.78;4995631;28;20054;-45
2023/06/04 08:25:13;;;;;;;54.95;14.98;;;;;;;12.68;84.00;100971.44;4995541;28;20534;-44
2023/06/04 08:27:41;;;;;;;52.45;13.30;;;;;;;12.72;83.92;100971.00;4996015;28;20026;-44
2023/06/04 08:30:08;;;;;;;52.63;13.57;;;;;;;12.72;83.97;100963.78;4995438;28;20029;-44
2023/06/04 08:32:34;;;;;;;68.47;19.73;;;;;;;12.68;84.37;100957.19;4994193;28;20034;-46
2023/06/04 08:35:01;;;;;;;66.05;20.20;;;;;;;12.55;85.01;100968.00;4995437;28;20054;-47
2023/06/04 08:37:28;;;;;;;55.92;21.08;;;;;;;12.53;85.14;100965.53;4995404;28;20399;-45
2023/06/04 08:39:54;;;;;;;74.05;21.65;;;;;;;12.57;84.82;100963.25;4995816;28;20025;-45
2023/06/04 08:42:30;;;;;;;61.45;18.42;;;;;;;12.51;84.99;100972.16;4994893;28;20493;-45
2023/06/04 08:44:58;;;;;;;62.00;19.90;;;;;;;12.70;84.24;100971.19;4995302;28;20375;-44
2023/06/04 08:47:29;;;;;;;57.03;21.38;;;;;;;12.66;84.27;100964.63;4995394;28;20026;-44
2023/06/04 08:50:00;;;;;;;73.43;23.77;;;;;;;12.61;84.67;100959.09;4995378;28;20030;-46
2023/06/04 08:52:28;;;;;;;58.70;18.98;;;;;;;12.63;84.52;100965.06;4995292;28;20034;-45
2023/06/04 08:54:54;;;;;;;68.00;22.00;;;;;;;12.51;85.10;100961.41;4995158;28;20028;-44
2023/06/04 08:57:21;;;;;;;74.93;22.25;;;;;;;12.61;84.92;100959.09;4995196;28;20525;-47
2023/06/04 08:59:48;;;;;;;66.93;21.35;;;;;;;12.53;85.19;100964.69;4995048;28;20073;-47
2023/06/04 09:02:17;;;;;;;59.88;18.05;;;;;;;12.51;85.27;100954.19;4995147;28;20030;-44
2023/06/04 09:04:45;;;;;;;69.22;20.50;;;;;;;12.62;84.96;100955.38;4995200;28;20501;-45
2023/06/04 09:07:13;;;;;;;51.80;17.55;;;;;;;12.44;85.50;100950.72;4994887;28;20030;-44
2023/06/04 09:09:40;;;;;;;64.82;21.50;;;;;;;12.50;85.38;100954.41;4994791;28;20020;-45
2023/06/04 09:12:12;;;;;;;63.55;19.75;;;;;;;12.55;84.87;100947.34;4995271;28;20045;-44
2023/06/04 09:14:38;;;;;;;60.85;19.33;;;;;;;12.57;85.07;100952.50;4994804;28;20497;-44
2023/06/04 09:17:05;;;;;;;56.10;19.17;;;;;;;12.54;85.07;100955.59;4994732;28;20030;-44
2023/06/04 09:19:31;;;;;;;60.80;17.10;;;;;;;12.53;85.71;100954.78;4994893;28;20029;-44
2023/06/04 09:21:59;;;;;;;63.97;17.42;;;;;;;12.51;85.72;100942.63;4994626;28;20027;-44
2023/06/04 09:24:38;;;;;;;64.38;18.30;;;;;;;12.47;86.00;100947.59;4995089;28;20494;-44
2023/06/04 09:27:12;;;;;;;58.92;19.70;;;;;;;12.50;86.29;100947.19;4994550;28;20097;-45
2023/06/04 09:29:40;;;;;;;50.08;15.60;;;;;;;12.54;86.07;100939.50;4994442;28;20026;-45
2023/06/04 09:32:06;;;;;;;64.03;18.65;;;;;;;12.54;85.75;100936.81;4994434;28;20093;-48
2023/06/04 09:34:33;;;;;;;65.72;19.13;;;;;;;12.47;86.05;100936.03;4994464;28;20022;-44
2023/06/04 09:36:59;;;;;;;58.78;18.17;;;;;;;12.56;85.84;100932.88;4994510;28;20054;-45
2023/06/04 09:39:26;;;;;;;50.60;17.60;;;;;;;12.56;86.04;100929.38;4994336;28;20106;-44
2023/06/04 09:42:03;;;;;;;59.70;18.02;;;;;;;12.56;85.97;100929.38;4994812;28;20031;-43
2023/06/04 09:44:30;;;;;;;46.85;16.27;;;;;;;12.52;85.81;100925.47;4994120;28;20030;-44
2023/06/04 09:46:57;;;;;;;40.10;12.80;;;;;;;12.56;85.79;100926.69;4994226;28;20118;-44
2023/06/04 09:49:24;;;;;;;57.25;16.30;;;;;;;12.62;85.98;100917.75;4994231;28;20026;-43
2023/06/04 09:51:50;;;;;;;50.15;16.05;;;;;;;12.67;85.58;100917.94;4994163;28;20487;-44
2023/06/04 09:54:17;;;;;;;50.85;16.92;;;;;;;12.53;86.25;100916.38;4993747;28;20495;-43
2023/06/04 09:56:43;;;;;;;59.45;16.70;;;;;;;12.53;86.45;100922.56;4994322;28;20049;-44
2023/06/04 09:59:10;;;;;;;55.67;14.45;;;;;;;12.53;86.20;100919.88;4993880;28;20087;-46
2023/06/04 10:01:42;;;;;;;65.43;15.38;;;;;;;12.48;86.01;100922.38;4994191;28;20022;-44
2023/06/04 10:04:11;;;;;;;49.33;15.90;;;;;;;12.47;85.90;100917.25;4993913;28;20036;-46
2023/06/04 10:06:40;;;;;;;44.25;14.52;;;;;;;12.56;85.69;100921.31;4993930;28;20030;-44
2023/06/04 10:09:09;;;;;;;49.25;15.30;;;;;;;12.53;85.95;100919.88;4993888;28;20022;-43
2023/06/04 10:11:47;;;;;;;56.58;16.63;;;;;;;12.35;86.93;100915.25;4993613;28;20105;-45
2023/06/04 10:14:16;;;;;;;57.55;14.88;;;;;;;12.42;86.74;100921.38;4994009;28;20032;-46
2023/06/04 10:16:43;;;;;;;47.42;14.30;;;;;;;12.46;86.70;100912.91;4993686;28;20498;-44
2023/06/04 10:19:10;;;;;;;50.22;15.13;;;;;;;12.46;86.73;100920.97;4993770;28;20438;-45
2023/06/04 10:21:37;;;;;;;50.70;14.90;;;;;;;12.46;86.74;100918.28;4993688;28;20023;-45
2023/06/04 10:24:04;;;;;;;45.03;15.07;;;;;;;12.38;87.26;100912.16;4993362;28;20030;-44
2023/06/04 10:26:32;;;;;;;56.05;14.20;;;;;;;12.38;87.24;100920.19;4993499;28;20026;-44
2023/06/04 10:29:02;;;;;;;52.03;14.18;;;;;;;12.29;87.61;100907.25;4993478;28;20031;-45
2023/06/04 10:31:29;;;;;;;53.35;13.32;;;;;;;12.41;87.10;100910.88;4993613;28;20026;-45
2023/06/04 10:33:56;;;;;;;49.28;14.52;;;;;;;12.35;87.28;100904.50;4993550;28;20034;-46
2023/06/04 10:36:24;;;;;;;52.45;13.65;;;;;;;12.26;87.69;100905.78;4993139;28;20042;-44
2023/06/04 10:38:52;;;;;;;43.92;12.82;;;;;;;12.31;87.48;100908.66;4993314;28;20496;-44
2023/06/04 10:41:23;;;;;;;42.03;13.77;;;;;;;12.35;87.49;100909.88;4993345;28;20114;-45
2023/06/04 10:43:51;;;;;;;50.42;13.32;;;;;;;12.38;87.32;100903.25;4993806;28;20113;-44
2023/06/04 10:46:19;;;;;;;49.80;14.65;;;;;;;12.23;87.96;100905.41;4993271;28;20430;-45
2023/06/04 10:48:53;;;;;;;37.10;12.07;;;;;;;12.23;87.84;100900.88;4993237;28;20045;-45
2023/06/04 10:51:30;;;;;;;53.72;14.43;;;;;;;12.27;87.23;100904.78;4993405;28;20022;-45
2023/06/04 10:53:58;;;;;;;47.75;13.32;;;;;;;12.22;87.13;100909.97;4993416;28;20023;-44
2023/06/04 10:56:37;;;;;;;49.17;13.77;;;;;;;12.26;86.99;100910.34;4993274;28;20407;-46
2023/06/04 10:59:15;;;;;;;45.60;14.32;;;;;;;12.11;87.65;100897.22;4993552;28;20089;-45
2023/06/04 11:01:41;;;;;;;61.25;14.93;;;;;;;12.10;87.64;100896.41;4993424;28;20022;-44
2023/06/04 11:04:17;;;;;;;49.88;13.02;;;;;;;12.08;87.65;100909.19;4994212;28;20368;-43
2023/06/04 11:06:44;;;;;;;44.45;12.07;;;;;;;12.21;86.51;100905.63;4997168;28;20036;-47
2023/06/04 11:09:18;;;;;;;49.67;12.05;;;;;;;12.19;86.34;100909.56;4996971;28;20026;-43
2023/06/04 11:11:44;;;;;;;54.95;14.77;;;;;;;12.16;86.98;100910.84;4996968;28;20104;-46
2023/06/04 11:14:12;;;;;;;49.03;13.95;;;;;;;12.08;87.45;100900.34;4996976;28;20026;-43